Chie Maru No.10 — JD2376 — position and weather

sailwx.info

Track history (hours):
 
Tides and Currents Weather Stations Pressure Air Temp Water Temp Dewpoint Dewpoint Depression Visibility Wind Speed Wind Dir Waves Ship Positions

Chie Maru No.10

Last reported at 2018-Jun-22 05:25 UTC. Time now 2018-Jun-22 09:24 UTC.
Position N 35°11' E 139°46'.

Length 72 m; draft 4.2 m.

Type: Ship. MMSI: 431000147.

Date/timePositionNaut miles runAvg speedWind from/ knotsBaromVisibWave heightAir tempDewpointWater temp
2018-Jun-22 05:25N 35°11' E 139°46'512.3
2018-Jun-22 05:00N 35°16' E 139°46'612.7
2018-Jun-22 04:30N 35°21' E 139°42'4 8.8
2018-Jun-22 04:01N 35°24' E 139°38'0 0.0
2018-Jun-22 03:30N 35°24' E 139°38'0 0.0
2018-Jun-22 03:00N 35°24' E 139°38'0 0.0
2018-Jun-22 02:30N 35°24' E 139°38'0 0.0
2018-Jun-22 02:00N 35°24' E 139°38'0 0.0
2018-Jun-22 01:30N 35°24' E 139°38'0 0.0
2018-Jun-22 01:00N 35°24' E 139°38'0 0.0
2018-Jun-22 00:29N 35°24' E 139°38'0 0.0
2018-Jun-22 00:00N 35°24' E 139°38'0 0.0
2018-Jun-21 23:30N 35°24' E 139°38'3 5.9
2018-Jun-21 23:00N 35°23' E 139°41'2 4.1
2018-Jun-21 22:28N 35°23' E 139°44'0 0.0
2018-Jun-21 21:55N 35°23' E 139°44'1 2.1
2018-Jun-21 21:30N 35°24' E 139°44'611.6
2018-Jun-21 21:01N 35°28' E 139°39'0 0.7
2018-Jun-21 20:30N 35°29' E 139°39'0 0.0
2018-Jun-21 20:00N 35°29' E 139°39'0 0.0
2018-Jun-21 19:30N 35°29' E 139°39'0 0.0
2018-Jun-21 19:00N 35°29' E 139°39'0 0.0
2018-Jun-21 18:30N 35°29' E 139°39'0 0.0
2018-Jun-21 18:00N 35°29' E 139°39'0 0.0
2018-Jun-21 17:30N 35°29' E 139°39'0 0.0
2018-Jun-21 17:00N 35°29' E 139°39'0 0.0
2018-Jun-21 16:30N 35°29' E 139°39'0 0.0
2018-Jun-21 16:00N 35°29' E 139°39'0 0.0
2018-Jun-21 15:30N 35°29' E 139°39'0 0.0
2018-Jun-21 15:00N 35°29' E 139°39'0 0.0
2018-Jun-21 14:30N 35°29' E 139°39'0 0.0
2018-Jun-21 14:00N 35°29' E 139°39'0 0.0
2018-Jun-21 13:30N 35°29' E 139°39'0 0.0
2018-Jun-21 13:00N 35°29' E 139°39'0 0.0
2018-Jun-21 12:30N 35°29' E 139°39'0 0.0
2018-Jun-21 12:00N 35°29' E 139°39'0 0.0
2018-Jun-21 11:29N 35°29' E 139°39'0 0.0
2018-Jun-21 11:00N 35°29' E 139°39'0 0.0
2018-Jun-21 10:30N 35°29' E 139°39'0 0.0
2018-Jun-21 10:00N 35°29' E 139°39'0 0.0
2018-Jun-21 09:30N 35°29' E 139°39'0 0.0
2018-Jun-21 09:00N 35°29' E 139°39'0 0.0
2018-Jun-21 08:30N 35°29' E 139°39'0 0.0
2018-Jun-21 08:00N 35°29' E 139°39'0 0.0
2018-Jun-21 07:30N 35°29' E 139°39'0 0.0
2018-Jun-21 07:00N 35°29' E 139°39'0 0.0
2018-Jun-21 06:30N 35°29' E 139°39'0 0.0
2018-Jun-21 06:00N 35°29' E 139°39'0 0.0
2018-Jun-21 05:30N 35°29' E 139°39'0 0.0
2018-Jun-21 05:00N 35°29' E 139°39'0 0.0
2018-Jun-21 04:30N 35°29' E 139°39'0 0.0
2018-Jun-21 04:00N 35°29' E 139°39'3 5.1
2018-Jun-21 03:30N 35°27' E 139°41'510.3
2018-Jun-21 02:59N 35°28' E 139°48'11 2.4
2018-Jun-20 22:12N 35°37' E 139°57'6 0.7
2018-Jun-20 12:56N 35°32' E 139°52'511.8
2018-Jun-20 12:30N 35°28' E 139°47'612.1
2018-Jun-20 12:00N 35°24' E 139°42'2 4.1
2018-Jun-20 11:30N 35°25' E 139°39'0 0.0
2018-Jun-20 11:00N 35°25' E 139°39'0 0.0
2018-Jun-20 10:29N 35°25' E 139°39'0 0.0
2018-Jun-20 10:00N 35°25' E 139°39'0 0.0
2018-Jun-20 09:30N 35°25' E 139°39'0 0.0
2018-Jun-20 09:00N 35°25' E 139°39'0 0.0
2018-Jun-20 08:30N 35°25' E 139°39'0 0.0
2018-Jun-20 08:00N 35°25' E 139°39'4 8.0
2018-Jun-20 07:31N 35°23' E 139°44'0 0.1
2018-Jun-20 06:58N 35°23' E 139°44'0 0.0
2018-Jun-20 06:28N 35°23' E 139°44'0 0.0
2018-Jun-20 05:58N 35°23' E 139°44'0 0.0
2018-Jun-20 05:28N 35°23' E 139°44'0 0.0
2018-Jun-20 04:58N 35°23' E 139°44'0 0.0
2018-Jun-20 04:25N 35°23' E 139°44'0 0.0
2018-Jun-20 03:58N 35°23' E 139°44'0 0.0
2018-Jun-20 03:25N 35°23' E 139°44'0 0.0
2018-Jun-20 02:58N 35°23' E 139°44'0 0.0
2018-Jun-20 02:28N 35°23' E 139°44'0 0.0
2018-Jun-20 01:58N 35°23' E 139°44'0 0.0
2018-Jun-20 01:25N 35°23' E 139°44'0 0.0
2018-Jun-20 00:55N 35°23' E 139°44'0 0.0
2018-Jun-20 00:28N 35°23' E 139°44'0 0.0
2018-Jun-19 23:58N 35°23' E 139°44'0 0.1
2018-Jun-19 23:28N 35°23' E 139°44'0 0.1
2018-Jun-19 22:58N 35°23' E 139°44'0 0.0
2018-Jun-19 22:25N 35°23' E 139°44'0 0.0
2018-Jun-19 21:55N 35°23' E 139°44'0 0.0
2018-Jun-19 21:19N 35°23' E 139°44'0 0.0
2018-Jun-19 20:58N 35°23' E 139°44'0 0.0
2018-Jun-19 20:28N 35°23' E 139°44'0 0.0
2018-Jun-19 19:58N 35°23' E 139°44'0 0.1
2018-Jun-19 19:30N 35°23' E 139°44'510.1
2018-Jun-19 19:01N 35°18' E 139°44'712.0
2018-Jun-19 18:27N 35°12' E 139°47'1 0.0
2018-Jun-17 17:56N 35°13' E 139°46'511.9
2018-Jun-17 17:30N 35°18' E 139°44'611.5
2018-Jun-17 17:00N 35°23' E 139°42'612.0
2018-Jun-17 16:30N 35°28' E 139°48'611.9
2018-Jun-17 16:00N 35°30' E 139°54'4 0.6
2018-Jun-17 09:08N 35°31' E 139°60'1 0.3
2018-Jun-17 06:11N 35°31' E 139°59'0 0.9
2018-Jun-17 06:00N 35°31' E 139°58'611.8
2018-Jun-17 05:30N 35°29' E 139°52'612.4
2018-Jun-17 05:00N 35°24' E 139°47'612.4
2018-Jun-17 04:31N 35°19' E 139°44'611.3
2018-Jun-17 04:00N 35°13' E 139°47'1 0.0
2018-Jun-15 09:46N 35°12' E 139°46'312.1
2018-Jun-15 09:30N 35°16' E 139°46'611.8
2018-Jun-15 09:00N 35°21' E 139°42'4 9.1
2018-Jun-15 08:30N 35°24' E 139°39'0 0.1
2018-Jun-15 08:00N 35°25' E 139°39'0 0.0
2018-Jun-15 07:30N 35°25' E 139°39'0 0.0
2018-Jun-15 07:00N 35°25' E 139°39'0 0.0
2018-Jun-15 06:30N 35°25' E 139°39'0 0.0
2018-Jun-15 06:00N 35°25' E 139°39'0 0.0
2018-Jun-15 05:30N 35°25' E 139°39'0 0.0
2018-Jun-15 05:00N 35°25' E 139°39'0 0.0
2018-Jun-15 04:30N 35°25' E 139°39'0 0.0
2018-Jun-15 04:00N 35°25' E 139°39'0 0.6
2018-Jun-15 03:30N 35°24' E 139°39'3 6.0
2018-Jun-15 03:00N 35°23' E 139°43'1 1.6
2018-Jun-15 02:29N 35°22' E 139°44'0 0.0
2018-Jun-15 01:59N 35°22' E 139°44'0 0.0
2018-Jun-15 01:29N 35°22' E 139°44'0 0.0
2018-Jun-15 00:59N 35°22' E 139°44'0 0.0
2018-Jun-15 00:29N 35°22' E 139°44'0 0.0
2018-Jun-14 23:59N 35°22' E 139°44'0 0.0
2018-Jun-14 23:29N 35°22' E 139°44'0 0.0
2018-Jun-14 22:59N 35°22' E 139°44'0 0.0
2018-Jun-14 22:29N 35°22' E 139°44'0 0.0
2018-Jun-14 21:59N 35°22' E 139°44'0 0.0
2018-Jun-14 21:29N 35°22' E 139°44'0 0.0
2018-Jun-14 20:59N 35°22' E 139°44'0 0.1
2018-Jun-14 20:26N 35°22' E 139°44'0 0.0
2018-Jun-14 19:59N 35°22' E 139°44'0 0.0
2018-Jun-14 19:29N 35°22' E 139°44'0 0.0
2018-Jun-14 18:59N 35°22' E 139°44'0 0.0
2018-Jun-14 18:29N 35°22' E 139°44'0 0.0
2018-Jun-14 17:59N 35°22' E 139°44'0 0.0
2018-Jun-14 17:29N 35°23' E 139°44'0 0.0
2018-Jun-14 16:59N 35°23' E 139°44'0 0.1
2018-Jun-14 16:29N 35°23' E 139°44'0 0.0
2018-Jun-14 15:59N 35°23' E 139°44'0 0.0
2018-Jun-14 15:29N 35°22' E 139°44'0 0.0
2018-Jun-14 14:59N 35°22' E 139°44'0 0.0
2018-Jun-14 14:26N 35°22' E 139°44'0 0.0
2018-Jun-14 13:59N 35°22' E 139°44'0 0.0
2018-Jun-14 13:29N 35°22' E 139°44'2 3.5
2018-Jun-14 13:00N 35°21' E 139°43'611.7
2018-Jun-14 12:31N 35°16' E 139°47'3 0.1
2018-Jun-13 17:08N 35°13' E 139°46'212.0
2018-Jun-13 16:59N 35°14' E 139°46'611.6
2018-Jun-13 16:30N 35°19' E 139°43'611.0
2018-Jun-13 16:00N 35°25' E 139°43'611.6
2018-Jun-13 15:30N 35°28' E 139°49'11 1.7
2018-Jun-13 08:57N 35°31' E 140°03'3 1.3
2018-Jun-13 06:18N 35°31' E 139°58'411.8
2018-Jun-13 06:00N 35°29' E 139°55'612.8
2018-Jun-13 05:31N 35°26' E 139°48'612.5
2018-Jun-13 05:01N 35°20' E 139°45'612.2
2018-Jun-13 04:30N 35°15' E 139°47'  
Track history (hours):
 
Tides and Currents Weather Stations Pressure Air Temp Water Temp Dewpoint Dewpoint Depression Visibility Wind Speed Wind Dir Waves Ship Positions

Chie Maru No.10

Last reported at 2018-Jun-22 05:25 UTC. Time now 2018-Jun-22 09:24 UTC.
Position N 35°11' E 139°46'.

Length 72 m; draft 4.2 m.

Type: Ship. MMSI: 431000147.

Date/timePositionNaut miles runAvg speedWind from/ knotsBaromVisibWave heightAir tempDewpointWater temp
2018-Jun-22 05:25N 35°11' E 139°46'512.3
2018-Jun-22 05:00N 35°16' E 139°46'612.7
2018-Jun-22 04:30N 35°21' E 139°42'4 8.8
2018-Jun-22 04:01N 35°24' E 139°38'0 0.0
2018-Jun-22 03:30N 35°24' E 139°38'0 0.0
2018-Jun-22 03:00N 35°24' E 139°38'0 0.0
2018-Jun-22 02:30N 35°24' E 139°38'0 0.0
2018-Jun-22 02:00N 35°24' E 139°38'0 0.0
2018-Jun-22 01:30N 35°24' E 139°38'0 0.0
2018-Jun-22 01:00N 35°24' E 139°38'0 0.0
2018-Jun-22 00:29N 35°24' E 139°38'0 0.0
2018-Jun-22 00:00N 35°24' E 139°38'0 0.0
2018-Jun-21 23:30N 35°24' E 139°38'3 5.9
2018-Jun-21 23:00N 35°23' E 139°41'2 4.1
2018-Jun-21 22:28N 35°23' E 139°44'0 0.0
2018-Jun-21 21:55N 35°23' E 139°44'1 2.1
2018-Jun-21 21:30N 35°24' E 139°44'611.6
2018-Jun-21 21:01N 35°28' E 139°39'0 0.7
2018-Jun-21 20:30N 35°29' E 139°39'0 0.0
2018-Jun-21 20:00N 35°29' E 139°39'0 0.0
2018-Jun-21 19:30N 35°29' E 139°39'0 0.0
2018-Jun-21 19:00N 35°29' E 139°39'0 0.0
2018-Jun-21 18:30N 35°29' E 139°39'0 0.0
2018-Jun-21 18:00N 35°29' E 139°39'0 0.0
2018-Jun-21 17:30N 35°29' E 139°39'0 0.0
2018-Jun-21 17:00N 35°29' E 139°39'0 0.0
2018-Jun-21 16:30N 35°29' E 139°39'0 0.0
2018-Jun-21 16:00N 35°29' E 139°39'0 0.0
2018-Jun-21 15:30N 35°29' E 139°39'0 0.0
2018-Jun-21 15:00N 35°29' E 139°39'0 0.0
2018-Jun-21 14:30N 35°29' E 139°39'0 0.0
2018-Jun-21 14:00N 35°29' E 139°39'0 0.0
2018-Jun-21 13:30N 35°29' E 139°39'0 0.0
2018-Jun-21 13:00N 35°29' E 139°39'0 0.0
2018-Jun-21 12:30N 35°29' E 139°39'0 0.0
2018-Jun-21 12:00N 35°29' E 139°39'0 0.0
2018-Jun-21 11:29N 35°29' E 139°39'0 0.0
2018-Jun-21 11:00N 35°29' E 139°39'0 0.0
2018-Jun-21 10:30N 35°29' E 139°39'0 0.0
2018-Jun-21 10:00N 35°29' E 139°39'0 0.0
2018-Jun-21 09:30N 35°29' E 139°39'0 0.0
2018-Jun-21 09:00N 35°29' E 139°39'0 0.0
2018-Jun-21 08:30N 35°29' E 139°39'0 0.0
2018-Jun-21 08:00N 35°29' E 139°39'0 0.0
2018-Jun-21 07:30N 35°29' E 139°39'0 0.0
2018-Jun-21 07:00N 35°29' E 139°39'0 0.0
2018-Jun-21 06:30N 35°29' E 139°39'0 0.0
2018-Jun-21 06:00N 35°29' E 139°39'0 0.0
2018-Jun-21 05:30N 35°29' E 139°39'0 0.0
2018-Jun-21 05:00N 35°29' E 139°39'0 0.0
2018-Jun-21 04:30N 35°29' E 139°39'0 0.0
2018-Jun-21 04:00N 35°29' E 139°39'3 5.1
2018-Jun-21 03:30N 35°27' E 139°41'510.3
2018-Jun-21 02:59N 35°28' E 139°48'11 2.4
2018-Jun-20 22:12N 35°37' E 139°57'6 0.7
2018-Jun-20 12:56N 35°32' E 139°52'511.8
2018-Jun-20 12:30N 35°28' E 139°47'612.1
2018-Jun-20 12:00N 35°24' E 139°42'2 4.1
2018-Jun-20 11:30N 35°25' E 139°39'0 0.0
2018-Jun-20 11:00N 35°25' E 139°39'0 0.0
2018-Jun-20 10:29N 35°25' E 139°39'0 0.0
2018-Jun-20 10:00N 35°25' E 139°39'0 0.0
2018-Jun-20 09:30N 35°25' E 139°39'0 0.0
2018-Jun-20 09:00N 35°25' E 139°39'0 0.0
2018-Jun-20 08:30N 35°25' E 139°39'0 0.0
2018-Jun-20 08:00N 35°25' E 139°39'4 8.0
2018-Jun-20 07:31N 35°23' E 139°44'0 0.1
2018-Jun-20 06:58N 35°23' E 139°44'0 0.0
2018-Jun-20 06:28N 35°23' E 139°44'0 0.0
2018-Jun-20 05:58N 35°23' E 139°44'0 0.0
2018-Jun-20 05:28N 35°23' E 139°44'0 0.0
2018-Jun-20 04:58N 35°23' E 139°44'0 0.0
2018-Jun-20 04:25N 35°23' E 139°44'0 0.0
2018-Jun-20 03:58N 35°23' E 139°44'0 0.0
2018-Jun-20 03:25N 35°23' E 139°44'0 0.0
2018-Jun-20 02:58N 35°23' E 139°44'0 0.0
2018-Jun-20 02:28N 35°23' E 139°44'0 0.0
2018-Jun-20 01:58N 35°23' E 139°44'0 0.0
2018-Jun-20 01:25N 35°23' E 139°44'0 0.0
2018-Jun-20 00:55N 35°23' E 139°44'0 0.0
2018-Jun-20 00:28N 35°23' E 139°44'0 0.0
2018-Jun-19 23:58N 35°23' E 139°44'0 0.1
2018-Jun-19 23:28N 35°23' E 139°44'0 0.1
2018-Jun-19 22:58N 35°23' E 139°44'0 0.0
2018-Jun-19 22:25N 35°23' E 139°44'0 0.0
2018-Jun-19 21:55N 35°23' E 139°44'0 0.0
2018-Jun-19 21:19N 35°23' E 139°44'0 0.0
2018-Jun-19 20:58N 35°23' E 139°44'0 0.0
2018-Jun-19 20:28N 35°23' E 139°44'0 0.0
2018-Jun-19 19:58N 35°23' E 139°44'0 0.1
2018-Jun-19 19:30N 35°23' E 139°44'510.1
2018-Jun-19 19:01N 35°18' E 139°44'712.0
2018-Jun-19 18:27N 35°12' E 139°47'1 0.0
2018-Jun-17 17:56N 35°13' E 139°46'511.9
2018-Jun-17 17:30N 35°18' E 139°44'611.5
2018-Jun-17 17:00N 35°23' E 139°42'612.0
2018-Jun-17 16:30N 35°28' E 139°48'611.9
2018-Jun-17 16:00N 35°30' E 139°54'4 0.6
2018-Jun-17 09:08N 35°31' E 139°60'1 0.3
2018-Jun-17 06:11N 35°31' E 139°59'0 0.9
2018-Jun-17 06:00N 35°31' E 139°58'611.8
2018-Jun-17 05:30N 35°29' E 139°52'612.4
2018-Jun-17 05:00N 35°24' E 139°47'612.4
2018-Jun-17 04:31N 35°19' E 139°44'611.3
2018-Jun-17 04:00N 35°13' E 139°47'1 0.0
2018-Jun-15 09:46N 35°12' E 139°46'312.1
2018-Jun-15 09:30N 35°16' E 139°46'611.8
2018-Jun-15 09:00N 35°21' E 139°42'4 9.1
2018-Jun-15 08:30N 35°24' E 139°39'0 0.1
2018-Jun-15 08:00N 35°25' E 139°39'0 0.0
2018-Jun-15 07:30N 35°25' E 139°39'0 0.0
2018-Jun-15 07:00N 35°25' E 139°39'0 0.0
2018-Jun-15 06:30N 35°25' E 139°39'0 0.0
2018-Jun-15 06:00N 35°25' E 139°39'0 0.0
2018-Jun-15 05:30N 35°25' E 139°39'0 0.0
2018-Jun-15 05:00N 35°25' E 139°39'0 0.0
2018-Jun-15 04:30N 35°25' E 139°39'0 0.0
2018-Jun-15 04:00N 35°25' E 139°39'0 0.6
2018-Jun-15 03:30N 35°24' E 139°39'3 6.0
2018-Jun-15 03:00N 35°23' E 139°43'1 1.6
2018-Jun-15 02:29N 35°22' E 139°44'0 0.0
2018-Jun-15 01:59N 35°22' E 139°44'0 0.0
2018-Jun-15 01:29N 35°22' E 139°44'0 0.0
2018-Jun-15 00:59N 35°22' E 139°44'0 0.0
2018-Jun-15 00:29N 35°22' E 139°44'0 0.0
2018-Jun-14 23:59N 35°22' E 139°44'0 0.0
2018-Jun-14 23:29N 35°22' E 139°44'0 0.0
2018-Jun-14 22:59N 35°22' E 139°44'0 0.0
2018-Jun-14 22:29N 35°22' E 139°44'0 0.0
2018-Jun-14 21:59N 35°22' E 139°44'0 0.0
2018-Jun-14 21:29N 35°22' E 139°44'0 0.0
2018-Jun-14 20:59N 35°22' E 139°44'0 0.1
2018-Jun-14 20:26N 35°22' E 139°44'0 0.0
2018-Jun-14 19:59N 35°22' E 139°44'0 0.0
2018-Jun-14 19:29N 35°22' E 139°44'0 0.0
2018-Jun-14 18:59N 35°22' E 139°44'0 0.0
2018-Jun-14 18:29N 35°22' E 139°44'0 0.0
2018-Jun-14 17:59N 35°22' E 139°44'0 0.0
2018-Jun-14 17:29N 35°23' E 139°44'0 0.0
2018-Jun-14 16:59N 35°23' E 139°44'0 0.1
2018-Jun-14 16:29N 35°23' E 139°44'0 0.0
2018-Jun-14 15:59N 35°23' E 139°44'0 0.0
2018-Jun-14 15:29N 35°22' E 139°44'0 0.0
2018-Jun-14 14:59N 35°22' E 139°44'0 0.0
2018-Jun-14 14:26N 35°22' E 139°44'0 0.0
2018-Jun-14 13:59N 35°22' E 139°44'0 0.0
2018-Jun-14 13:29N 35°22' E 139°44'2 3.5
2018-Jun-14 13:00N 35°21' E 139°43'611.7
2018-Jun-14 12:31N 35°16' E 139°47'3 0.1
2018-Jun-13 17:08N 35°13' E 139°46'212.0
2018-Jun-13 16:59N 35°14' E 139°46'611.6
2018-Jun-13 16:30N 35°19' E 139°43'611.0
2018-Jun-13 16:00N 35°25' E 139°43'611.6
2018-Jun-13 15:30N 35°28' E 139°49'11 1.7
2018-Jun-13 08:57N 35°31' E 140°03'3 1.3
2018-Jun-13 06:18N 35°31' E 139°58'411.8
2018-Jun-13 06:00N 35°29' E 139°55'612.8
2018-Jun-13 05:31N 35°26' E 139°48'612.5
2018-Jun-13 05:01N 35°20' E 139°45'612.2
2018-Jun-13 04:30N 35°15' E 139°47'  

Dump ship's entire track history